createdAt,value
2022-12-16T08:03:13.135Z,22.00
2022-12-16T08:21:30.606Z,18.83
2022-12-16T08:24:16.176Z,23.50
2022-12-16T08:27:01.856Z,22.30
2022-12-16T08:29:47.444Z,23.37
2022-12-16T08:32:33.661Z,24.03
2022-12-16T08:35:19.415Z,21.40
2022-12-16T08:38:12.166Z,19.33
2022-12-16T08:41:00.793Z,25.30
2022-12-16T08:43:46.316Z,28.57
2022-12-16T08:46:46.335Z,21.30
2022-12-16T08:49:31.591Z,29.17
2022-12-16T08:52:16.953Z,23.97
2022-12-16T08:55:03.431Z,25.97
2022-12-16T08:57:48.938Z,31.27
2022-12-16T09:00:34.892Z,33.43
2022-12-16T09:03:20.849Z,30.37
2022-12-16T09:06:06.450Z,33.50
2022-12-16T09:08:51.768Z,24.63
2022-12-16T09:11:38.381Z,26.27
2022-12-16T09:14:23.751Z,31.53
2022-12-16T09:17:09.363Z,27.67
2022-12-16T09:19:55.320Z,30.70
2022-12-16T09:22:41.028Z,27.27
2022-12-16T09:25:27.081Z,25.50
2022-12-16T09:28:13.829Z,37.70
2022-12-16T09:30:59.256Z,27.90
2022-12-16T09:33:59.176Z,30.87
2022-12-16T09:36:44.712Z,26.07
2022-12-16T09:39:30.341Z,31.50
2022-12-16T09:42:24.457Z,28.50
2022-12-16T09:45:21.030Z,32.87
2022-12-16T09:48:13.057Z,36.03
2022-12-16T09:51:13.119Z,28.10
2022-12-16T09:54:01.435Z,28.23
2022-12-16T09:56:48.933Z,31.53
2022-12-16T09:59:38.840Z,27.97
2022-12-16T10:02:30.042Z,28.30
2022-12-16T10:05:15.516Z,31.03
2022-12-16T10:08:07.094Z,24.13
2022-12-16T10:11:04.382Z,23.10
2022-12-16T10:13:55.641Z,24.63
2022-12-16T10:16:56.070Z,24.50
2022-12-16T10:19:57.487Z,22.07
2022-12-16T10:22:51.857Z,27.40
2022-12-16T10:25:41.335Z,22.93
2022-12-16T10:28:34.760Z,21.60
2022-12-16T10:31:21.503Z,22.73
2022-12-16T10:34:08.676Z,20.83
2022-12-16T10:36:59.147Z,21.00
2022-12-16T10:39:50.170Z,20.57
2022-12-16T10:42:43.106Z,21.17
2022-12-16T10:45:39.851Z,20.37
2022-12-16T10:48:27.418Z,20.33
2022-12-16T10:51:12.928Z,25.57
2022-12-16T10:53:59.930Z,23.17
2022-12-16T10:57:05.760Z,26.83
2022-12-16T10:59:56.139Z,26.73
2022-12-16T11:02:44.291Z,20.60
2022-12-16T11:05:50.228Z,16.77
2022-12-16T11:08:45.043Z,19.13
2022-12-16T11:11:41.148Z,13.47
2022-12-16T11:14:40.192Z,14.37
2022-12-16T11:17:34.369Z,18.10
2022-12-16T11:20:31.062Z,13.30
2022-12-16T11:23:34.753Z,13.87
2022-12-16T11:26:30.432Z,12.13
2022-12-16T11:29:31.096Z,10.93
2022-12-16T11:32:21.019Z,12.43
2022-12-16T11:35:12.375Z,9.73
2022-12-16T11:38:08.609Z,11.83
2022-12-16T11:40:55.432Z,9.30
2022-12-16T11:43:43.840Z,11.40
2022-12-16T11:46:38.391Z,12.67
2022-12-16T11:49:32.495Z,12.57
2022-12-16T11:52:36.290Z,11.33
2022-12-16T11:56:03.369Z,13.80
2022-12-16T11:58:47.680Z,13.73
2022-12-16T12:01:44.947Z,15.23
2022-12-16T12:04:40.567Z,15.33
2022-12-16T12:07:44.992Z,20.80
2022-12-16T12:10:43.985Z,14.90
2022-12-16T12:13:46.252Z,13.70
2022-12-16T12:16:43.321Z,16.50
2022-12-16T12:19:34.288Z,12.73
2022-12-16T12:22:23.172Z,12.07
2022-12-16T12:25:12.940Z,9.60
2022-12-16T12:28:09.255Z,11.50
2022-12-16T12:31:02.815Z,12.27
2022-12-16T12:33:56.794Z,14.83
2022-12-16T12:36:49.187Z,14.63
2022-12-16T12:39:40.748Z,13.80
2022-12-16T12:42:50.090Z,13.03
2022-12-16T12:45:51.740Z,9.97
2022-12-16T12:48:42.483Z,9.70
2022-12-16T12:51:36.791Z,12.90
2022-12-16T12:54:33.522Z,8.73
2022-12-16T12:57:21.181Z,8.80
2022-12-16T13:00:13.359Z,13.43
2022-12-16T13:03:08.477Z,8.53
2022-12-16T13:05:57.996Z,9.10
2022-12-16T13:08:58.080Z,10.07
2022-12-16T13:11:43.528Z,12.70
2022-12-16T13:15:02.611Z,11.43
2022-12-16T13:17:48.052Z,9.90
2022-12-16T13:20:56.571Z,11.20
2022-12-16T13:23:53.885Z,9.00
2022-12-16T13:26:42.888Z,12.27
2022-12-16T13:29:38.411Z,8.77
2022-12-16T13:32:35.914Z,13.67
2022-12-16T13:35:24.317Z,8.77
2022-12-16T13:38:11.943Z,10.53
2022-12-16T13:41:13.033Z,7.00
2022-12-16T13:44:17.374Z,9.60
2022-12-16T13:47:04.693Z,12.77
2022-12-16T13:50:03.487Z,8.47
2022-12-16T13:53:03.623Z,10.77
2022-12-16T13:55:51.648Z,12.00
2022-12-16T13:58:53.687Z,8.57
2022-12-16T14:01:46.866Z,13.47
2022-12-16T14:04:42.478Z,10.03
2022-12-16T14:07:28.384Z,11.13
2022-12-16T14:10:13.914Z,9.63
2022-12-16T14:13:21.470Z,7.27
2022-12-16T14:16:20.378Z,9.37
2022-12-16T14:19:23.308Z,9.20
2022-12-16T14:22:12.002Z,9.43
2022-12-16T14:24:57.595Z,8.53
2022-12-16T14:27:44.508Z,10.17
2022-12-16T14:30:36.623Z,9.10
2022-12-16T14:33:41.167Z,6.53
2022-12-16T14:36:41.038Z,7.50
2022-12-16T14:39:32.729Z,9.10
2022-12-16T14:42:18.513Z,7.97
2022-12-16T14:45:05.687Z,11.27
2022-12-16T14:47:51.222Z,9.90
2022-12-16T14:50:41.233Z,11.90
2022-12-16T14:53:38.816Z,10.13
2022-12-16T14:56:38.333Z,13.47
2022-12-16T14:59:33.572Z,11.03
2022-12-16T15:02:32.702Z,14.07
